CBR weather

Canberra International Airport
Canberra, Australian Capital Territory, Australia

Public forecast

Using degrees Celsius for public forecast. Weather courtesy of forecast.io.

METAR (pilot weather report)

Retrieved 2018/02/23 10:00 UTC (18 minutes ago):

YSCB 231000Z AUTO 07004KT 9999 // SCT120 24/09 Q1013

TAF (pilot weather forecast)

Retrieved 2018/02/23 06:00 UTC (4 hours ago):

TAF YSCB 230530Z 2306/2406 32010KT CAVOK FM231000 02006KT CAVOK FM232200 31014KT CAVOK BECMG 2400/2401 31017G27KT 9999 -SHRA SCT045 PROB30 INTER 2403/2406 VRB22G35KT 4000 TSRA SCT018 SCT045CB